Time;durP1;ratioP1;P1;durP2;ratioP2;P2;SDS_P1;SDS_P2;PMS_P1;PMS_P2;Temp;Humidity;BMP_temperature;BMP_pressure;BME280_temperature;BME280_humidity;BME280_pressure;Samples;Min_cycle;Max_cycle;Signal;HPM_P1;HPM_P2
2024/04/24 00:00:03;;;;;;;4.43;3.50;;;7.60;99.90;;;;;;5489722;26;20499;-65
2024/04/24 00:02:32;;;;;;;3.67;3.37;;;7.70;99.90;;;;;;5490040;26;20455;-65
2024/04/24 00:05:03;;;;;;;4.10;3.50;;;7.80;99.90;;;;;;5489500;26;20499;-65
2024/04/24 00:07:32;;;;;;;3.23;3.03;;;7.80;99.90;;;;;;5489477;26;20415;-65
2024/04/24 00:10:00;;;;;;;4.27;3.37;;;7.90;99.90;;;;;;5489459;26;20767;-65
2024/04/24 00:12:28;;;;;;;4.07;3.77;;;7.90;99.90;;;;;;5489306;26;20446;-65
2024/04/24 00:14:59;;;;;;;3.67;3.33;;;8.00;99.90;;;;;;5489215;26;20435;-65
2024/04/24 00:17:27;;;;;;;5.00;3.00;;;8.00;99.90;;;;;;5489363;26;20491;-65
2024/04/24 00:19:55;;;;;;;4.10;3.00;;;8.00;99.90;;;;;;5489242;26;20455;-65
2024/04/24 00:22:23;;;;;;;3.30;3.10;;;8.00;99.90;;;;;;5489327;26;20954;-65
2024/04/24 00:24:52;;;;;;;3.80;3.10;;;8.00;99.90;;;;;;5489179;26;20459;-65
2024/04/24 00:27:20;;;;;;;3.50;3.30;;;8.10;99.90;;;;;;5489027;26;20447;-65
2024/04/24 00:29:48;;;;;;;5.40;3.73;;;8.10;99.90;;;;;;5489023;26;20528;-65
2024/04/24 00:32:19;;;;;;;3.60;2.97;;;8.10;99.90;;;;;;5489094;26;20451;-65
2024/04/24 00:34:47;;;;;;;3.50;3.20;;;8.10;99.90;;;;;;5489417;26;20962;-66
2024/04/24 00:37:15;;;;;;;3.40;3.20;;;8.10;99.90;;;;;;5489191;26;20480;-66
2024/04/24 00:39:45;;;;;;;3.03;2.83;;;7.90;99.90;;;;;;5488816;26;20459;-66
2024/04/24 00:42:20;;;;;;;3.70;3.10;;;8.00;99.90;;;;;;5489034;26;20560;-65
2024/04/24 00:44:48;;;;;;;4.17;3.40;;;7.90;99.90;;;;;;5488839;26;20488;-65
2024/04/24 00:47:21;;;;;;;3.87;3.57;;;8.00;99.90;;;;;;5488744;26;20435;-65
2024/04/24 00:49:52;;;;;;;3.60;3.33;;;8.00;99.90;;;;;;5492376;26;20547;-65
2024/04/24 00:52:20;;;;;;;2.77;2.57;;;8.10;99.90;;;;;;5492330;26;20446;-65
2024/04/24 00:54:49;;;;;;;3.13;2.93;;;8.10;99.90;;;;;;5492163;26;21037;-65
2024/04/24 00:57:17;;;;;;;6.60;2.60;;;8.10;99.90;;;;;;5492129;26;20481;-65
2024/04/24 00:59:46;;;;;;;3.00;2.80;;;8.10;99.90;;;;;;5492069;26;20446;-65
2024/04/24 01:02:14;;;;;;;3.20;3.00;;;8.10;99.90;;;;;;5492197;26;20651;-65
2024/04/24 01:04:45;;;;;;;5.20;3.03;;;8.10;99.90;;;;;;5492133;26;20973;-65
2024/04/24 01:07:13;;;;;;;2.97;2.77;;;8.20;99.90;;;;;;5492200;26;20438;-65
2024/04/24 01:09:41;;;;;;;3.33;3.13;;;8.10;99.90;;;;;;5492530;26;20759;-65
2024/04/24 01:12:09;;;;;;;2.77;2.63;;;8.10;99.90;;;;;;5492422;26;20483;-65
2024/04/24 01:14:37;;;;;;;3.00;2.80;;;8.20;99.90;;;;;;5492146;26;20489;-65
2024/04/24 01:17:07;;;;;;;3.43;2.73;;;8.20;99.90;;;;;;5491903;26;20585;-65
2024/04/24 01:19:45;;;;;;;4.47;3.00;;;8.10;99.90;;;;;;5491816;26;20446;-65
2024/04/24 01:22:26;;;;;;;2.77;2.67;;;8.10;99.90;;;;;;5492008;26;20499;-65
2024/04/24 01:25:00;;;;;;;3.20;2.90;;;8.10;99.90;;;;;;5491989;26;20510;-65
2024/04/24 01:27:31;;;;;;;5.83;3.50;;;8.10;99.90;;;;;;5491858;26;20458;-65
2024/04/24 01:29:59;;;;;;;2.80;2.60;;;8.10;99.90;;;;;;5491888;26;20799;-65
2024/04/24 01:32:27;;;;;;;2.60;2.40;;;8.10;99.90;;;;;;5491778;26;20443;-65
2024/04/24 01:34:55;;;;;;;2.37;2.27;;;8.20;99.90;;;;;;5491766;26;20443;-65
2024/04/24 01:37:21;;;;;;;2.40;2.20;;;8.10;99.90;;;;;;5491715;26;20443;-65
2024/04/24 01:39:49;;;;;;;3.67;3.37;;;8.10;99.90;;;;;;5491616;26;20510;-65
2024/04/24 01:42:17;;;;;;;2.60;2.50;;;8.10;99.90;;;;;;5491635;26;20248;-65
2024/04/24 01:44:48;;;;;;;2.80;2.60;;;8.00;99.90;;;;;;5491538;26;20446;-65
2024/04/24 01:47:16;;;;;;;2.87;2.67;;;8.00;99.90;;;;;;5491628;26;20447;-65
2024/04/24 01:49:44;;;;;;;3.17;2.67;;;8.00;99.90;;;;;;5491439;26;20586;-65
2024/04/24 01:52:12;;;;;;;2.90;2.70;;;7.90;99.90;;;;;;5491516;26;20451;-65
2024/04/24 01:54:40;;;;;;;2.53;2.33;;;7.70;99.90;;;;;;5491337;26;20512;-65
2024/04/24 01:57:09;;;;;;;2.60;2.40;;;7.80;99.90;;;;;;5491394;26;20491;-66
2024/04/24 01:59:37;;;;;;;3.07;2.87;;;7.70;99.90;;;;;;5489785;26;20439;-65
2024/04/24 02:02:08;;;;;;;2.70;2.50;;;7.60;99.90;;;;;;5491239;26;20451;-65
2024/04/24 02:04:36;;;;;;;2.77;2.57;;;7.70;99.90;;;;;;5491386;26;20870;-65
2024/04/24 02:07:04;;;;;;;2.90;2.70;;;7.70;99.90;;;;;;5491326;26;20427;-65
2024/04/24 02:09:32;;;;;;;3.00;2.90;;;7.80;99.90;;;;;;5491343;26;20443;-65
2024/04/24 02:12:01;;;;;;;2.83;2.50;;;7.80;99.90;;;;;;5491247;26;20434;-65
2024/04/24 02:14:29;;;;;;;2.53;2.33;;;7.70;99.90;;;;;;5491269;26;20491;-65
2024/04/24 02:16:57;;;;;;;4.40;3.00;;;7.80;99.90;;;;;;5491120;26;20435;-65
2024/04/24 02:19:27;;;;;;;2.63;2.43;;;7.60;99.90;;;;;;5490755;26;20483;-65
2024/04/24 02:21:56;;;;;;;2.57;2.37;;;7.60;99.90;;;;;;5491009;26;20447;-65
2024/04/24 02:27:04;;;;;;;4.50;2.47;;;7.50;99.90;;;;;;5490649;26;20969;-65
2024/04/24 02:29:32;;;;;;;3.33;3.13;;;7.50;99.90;;;;;;5491060;26;20451;-65
2024/04/24 02:32:00;;;;;;;2.60;2.40;;;7.50;99.90;;;;;;5490925;26;20447;-65
2024/04/24 02:34:31;;;;;;;2.87;2.67;;;7.60;99.90;;;;;;5490722;26;20450;-65
2024/04/24 02:37:00;;;;;;;2.67;2.47;;;7.50;99.90;;;;;;5490873;26;20495;-65
2024/04/24 02:39:28;;;;;;;2.90;2.50;;;7.40;99.90;;;;;;5490726;26;20210;-65
2024/04/24 02:41:56;;;;;;;3.80;2.70;;;7.40;99.90;;;;;;5490773;26;20455;-65
2024/04/24 02:44:24;;;;;;;3.37;3.17;;;7.40;99.90;;;;;;5490709;26;20503;-65
2024/04/24 02:46:52;;;;;;;2.90;2.70;;;7.50;99.90;;;;;;5490675;26;20463;-65
2024/04/24 02:49:20;;;;;;;3.00;2.67;;;7.60;99.90;;;;;;5490703;26;20493;-65
2024/04/24 02:51:51;;;;;;;3.47;3.17;;;7.50;99.90;;;;;;5490869;26;20444;-65
2024/04/24 02:54:19;;;;;;;3.60;3.30;;;7.50;99.90;;;;;;5490548;26;20460;-65
2024/04/24 02:56:47;;;;;;;3.27;3.07;;;7.50;99.90;;;;;;5490469;26;20462;-65
2024/04/24 02:59:15;;;;;;;3.30;3.00;;;7.50;99.90;;;;;;5490295;26;20487;-65
2024/04/24 03:01:43;;;;;;;5.23;3.07;;;7.40;99.90;;;;;;5490523;26;21007;-65
2024/04/24 03:04:12;;;;;;;3.00;2.70;;;7.40;99.90;;;;;;5490450;26;20504;-65
2024/04/24 03:06:43;;;;;;;3.40;2.90;;;7.30;99.90;;;;;;5490348;26;20495;-65
2024/04/24 03:09:14;;;;;;;3.33;3.10;;;7.20;99.90;;;;;;5490483;26;20498;-65
2024/04/24 03:11:42;;;;;;;3.00;2.70;;;7.10;99.90;;;;;;5489803;26;20454;-65
2024/04/24 03:14:10;;;;;;;4.93;2.87;;;7.00;99.90;;;;;;5490256;26;20495;-65
2024/04/24 03:16:39;;;;;;;3.10;2.87;;;6.70;99.90;;;;;;5490274;26;20503;-65
2024/04/24 03:19:08;;;;;;;4.80;2.90;;;6.50;99.90;;;;;;5490123;26;20419;-65
2024/04/24 03:21:36;;;;;;;4.55;2.97;;;6.50;99.90;;;;;;5490175;26;20961;-65
2024/04/24 03:24:04;;;;;;;3.07;2.80;;;6.60;99.90;;;;;;5490174;26;20214;-65
2024/04/24 03:26:35;;;;;;;5.63;3.13;;;6.60;99.90;;;;;;5490030;26;20479;-65
2024/04/24 03:29:03;;;;;;;3.80;3.45;;;6.70;99.90;;;;;;5490167;26;20245;-65
2024/04/24 03:31:34;;;;;;;3.28;2.95;;;6.70;99.90;;;;;;5490134;26;20727;-65
2024/04/24 03:34:02;;;;;;;4.13;3.67;;;6.70;99.90;;;;;;5490144;26;20236;-65
2024/04/24 03:36:30;;;;;;;3.80;3.53;;;6.80;99.90;;;;;;5489962;26;20237;-65
2024/04/24 03:38:59;;;;;;;3.22;2.90;;;6.80;99.90;;;;;;5489907;26;20435;-65
2024/04/24 03:41:27;;;;;;;3.78;3.47;;;6.80;99.90;;;;;;5489761;26;20245;-65
2024/04/24 03:43:57;;;;;;;4.00;3.70;;;6.90;99.90;;;;;;5489856;26;20758;-65
2024/04/24 03:46:25;;;;;;;5.68;3.55;;;6.70;99.90;;;;;;5489808;26;20210;-65
2024/04/24 03:48:54;;;;;;;5.90;4.65;;;6.70;99.90;;;;;;5489744;26;20214;-65
2024/04/24 03:51:22;;;;;;;4.50;4.07;;;6.70;99.90;;;;;;5489636;26;20539;-65
2024/04/24 03:53:50;;;;;;;4.60;4.20;;;6.70;99.90;;;;;;5489591;26;20435;-65
2024/04/24 03:56:18;;;;;;;5.15;4.65;;;6.70;99.90;;;;;;5489613;26;20489;-65
2024/04/24 03:58:47;;;;;;;3.43;3.13;;;6.80;99.90;;;;;;5489552;26;20613;-65
2024/04/24 04:01:17;;;;;;;4.80;4.40;;;6.80;99.90;;;;;;5489500;26;20427;-65
2024/04/24 04:03:45;;;;;;;5.03;4.63;;;6.90;99.90;;;;;;5489571;26;20499;-65
2024/04/24 04:06:13;;;;;;;4.40;4.00;;;6.80;99.90;;;;;;5489540;26;20491;-65
2024/04/24 04:08:41;;;;;;;4.72;4.32;;;6.90;99.90;;;;;;5489370;26;20462;-65
2024/04/24 04:11:10;;;;;;;4.23;3.77;;;7.00;99.90;;;;;;5489355;26;20214;-65
2024/04/24 04:13:38;;;;;;;5.83;4.70;;;7.20;99.90;;;;;;5489520;26;20510;-66
2024/04/24 04:16:06;;;;;;;6.03;4.90;;;7.20;99.90;;;;;;5489334;26;20826;-65
2024/04/24 04:18:37;;;;;;;4.07;3.83;;;7.20;99.90;;;;;;5489293;26;20443;-65
2024/04/24 04:21:06;;;;;;;5.28;4.20;;;7.30;99.90;;;;;;5489180;26;20569;-65
2024/04/24 04:23:34;;;;;;;6.63;4.53;;;7.40;99.90;;;;;;5488071;26;20237;-65
2024/04/24 04:26:02;;;;;;;4.33;3.97;;;7.50;99.90;;;;;;5489000;26;20454;-65
2024/04/24 04:28:30;;;;;;;5.53;4.50;;;7.60;99.90;;;;;;5489062;26;20447;-65
2024/04/24 04:30:58;;;;;;;4.30;3.90;;;7.50;99.90;;;;;;5488857;26;20522;-66
2024/04/24 04:33:26;;;;;;;4.50;4.10;;;7.50;99.90;;;;;;5488963;26;20792;-65
2024/04/24 04:35:57;;;;;;;6.00;5.07;;;7.60;99.90;;;;;;5488921;26;20491;-65
2024/04/24 04:38:25;;;;;;;5.90;5.10;;;7.60;99.90;;;;;;5488980;26;20443;-65
2024/04/24 04:40:53;;;;;;;6.53;4.40;;;7.60;99.90;;;;;;5488921;26;20443;-65
2024/04/24 04:43:21;;;;;;;5.27;4.83;;;7.60;99.90;;;;;;5488706;26;20772;-65
2024/04/24 04:45:49;;;;;;;4.47;4.13;;;7.60;99.90;;;;;;5488621;26;20459;-65
2024/04/24 04:48:18;;;;;;;6.13;4.80;;;7.60;99.90;;;;;;5488536;26;20958;-65
2024/04/24 04:50:46;;;;;;;5.57;5.07;;;7.60;99.90;;;;;;5488562;26;21030;-65
2024/04/24 04:53:17;;;;;;;4.60;4.13;;;7.60;99.90;;;;;;5488732;26;20561;-66
2024/04/24 04:55:45;;;;;;;7.13;4.70;;;7.70;99.90;;;;;;5488299;26;20480;-65
2024/04/24 04:58:13;;;;;;;5.50;4.73;;;7.80;99.90;;;;;;5488336;26;20857;-65
2024/04/24 05:00:41;;;;;;;11.00;5.27;;;7.80;99.90;;;;;;5488228;26;20455;-65
2024/04/24 05:03:09;;;;;;;6.03;5.43;;;7.90;99.90;;;;;;5488382;26;20451;-65
2024/04/24 05:05:38;;;;;;;10.00;4.57;;;7.90;99.90;;;;;;5488799;26;20828;-65
2024/04/24 05:08:06;;;;;;;5.87;4.60;;;7.90;99.90;;;;;;5488343;26;20451;-65
2024/04/24 05:10:37;;;;;;;5.10;4.60;;;7.80;99.90;;;;;;5488251;26;20447;-65
2024/04/24 05:13:05;;;;;;;5.30;4.90;;;7.60;99.90;;;;;;5488358;26;20500;-65
2024/04/24 05:15:34;;;;;;;5.00;4.50;;;7.60;99.90;;;;;;5488416;26;20498;-65
2024/04/24 05:18:02;;;;;;;5.10;4.60;;;7.60;99.90;;;;;;5488089;26;20755;-65
2024/04/24 05:20:30;;;;;;;6.67;5.37;;;7.50;99.90;;;;;;5487978;26;20446;-65
2024/04/24 05:23:00;;;;;;;7.60;5.80;;;7.40;99.90;;;;;;5487887;26;20495;-65
2024/04/24 05:25:32;;;;;;;5.57;5.07;;;7.40;99.90;;;;;;5488039;26;20498;-65
2024/04/24 05:30:46;;;;;;;6.27;5.67;;;7.40;99.90;;;;;;5490572;26;20479;-65
2024/04/24 05:33:14;;;;;;;5.60;5.10;;;7.40;99.90;;;;;;5487620;26;21018;-65
2024/04/24 05:35:43;;;;;;;7.68;6.05;;;7.40;99.90;;;;;;5491278;26;20442;-65
2024/04/24 05:38:11;;;;;;;6.13;5.10;;;7.50;99.90;;;;;;5491364;26;20209;-65
2024/04/24 05:40:39;;;;;;;10.40;5.83;;;7.70;99.90;;;;;;5491464;26;20443;-65
2024/04/24 05:43:09;;;;;;;8.07;6.60;;;7.80;99.90;;;;;;5491386;26;20419;-65
2024/04/24 05:45:38;;;;;;;6.70;6.10;;;7.90;99.90;;;;;;5491511;26;20447;-65
2024/04/24 05:48:07;;;;;;;10.13;6.80;;;8.10;99.90;;;;;;5491276;26;20454;-65
2024/04/24 05:50:35;;;;;;;6.30;5.67;;;8.20;99.90;;;;;;5491188;26;20558;-66
2024/04/24 05:53:03;;;;;;;6.53;5.80;;;8.40;99.90;;;;;;5491270;26;20503;-66
2024/04/24 05:55:31;;;;;;;6.67;6.07;;;8.50;99.90;;;;;;5491084;26;20458;-65
2024/04/24 05:57:56;;;;;;;6.67;5.97;;;8.40;99.90;;;;;;5491221;26;20784;-65
2024/04/24 06:00:27;;;;;;;6.27;5.60;;;8.40;99.90;;;;;;5491069;26;20446;-66
2024/04/24 06:02:56;;;;;;;7.87;5.47;;;8.60;99.90;;;;;;5491242;26;20245;-65
2024/04/24 06:05:24;;;;;;;7.33;6.37;;;8.60;99.90;;;;;;5491164;26;20585;-65
2024/04/24 06:07:53;;;;;;;5.53;5.10;;;8.80;99.90;;;;;;5491432;26;20487;-66
2024/04/24 06:10:21;;;;;;;7.40;6.47;;;8.90;99.90;;;;;;5491071;26;20548;-66
2024/04/24 06:12:49;;;;;;;6.50;5.80;;;9.10;99.90;;;;;;5491081;26;20545;-65
2024/04/24 06:15:17;;;;;;;5.87;5.37;;;9.20;99.90;;;;;;5491084;26;20483;-66
2024/04/24 06:17:48;;;;;;;7.83;5.30;;;9.20;99.90;;;;;;5490776;26;20443;-65
2024/04/24 06:20:16;;;;;;;11.70;6.53;;;9.10;99.90;;;;;;5490817;26;20451;-66
2024/04/24 06:22:45;;;;;;;8.87;5.93;;;9.00;99.90;;;;;;5490919;26;20447;-66
2024/04/24 06:25:13;;;;;;;7.67;5.47;;;9.00;99.90;;;;;;5490916;26;20460;-66
2024/04/24 06:27:41;;;;;;;5.83;5.20;;;9.10;99.90;;;;;;5490777;26;20447;-66
2024/04/24 06:30:10;;;;;;;8.00;6.47;;;9.10;99.90;;;;;;5490762;26;20485;-65
2024/04/24 06:32:38;;;;;;;6.13;5.53;;;9.20;99.90;;;;;;5490550;26;20451;-65
2024/04/24 06:35:09;;;;;;;6.40;5.30;;;9.10;99.90;;;;;;5490451;26;20487;-66
2024/04/24 06:37:37;;;;;;;5.40;4.90;;;9.20;99.90;;;;;;5490745;26;20459;-65
2024/04/24 06:40:06;;;;;;;5.93;5.43;;;9.30;99.90;;;;;;5490473;26;20480;-66
2024/04/24 06:42:34;;;;;;;5.27;4.77;;;9.50;99.90;;;;;;5490646;26;20455;-65
2024/04/24 06:45:02;;;;;;;7.67;5.50;;;9.60;99.90;;;;;;5490221;26;20490;-66
2024/04/24 06:47:30;;;;;;;5.80;5.30;;;9.70;99.90;;;;;;5490137;26;20492;-65
2024/04/24 06:49:59;;;;;;;5.83;5.13;;;9.60;99.90;;;;;;5490438;26;20562;-65
2024/04/24 06:52:29;;;;;;;6.10;5.50;;;9.70;99.90;;;;;;5490442;26;20965;-66
2024/04/24 06:54:57;;;;;;;5.80;5.33;;;9.90;99.90;;;;;;5490080;26;20525;-66
2024/04/24 06:57:26;;;;;;;6.00;5.40;;;9.80;99.90;;;;;;5490022;26;20459;-66
2024/04/24 06:59:54;;;;;;;5.50;5.10;;;9.90;99.90;;;;;;5489775;26;21067;-68
2024/04/24 07:02:22;;;;;;;4.67;4.27;;;9.90;99.90;;;;;;5489973;26;20459;-64
2024/04/24 07:04:50;;;;;;;7.90;5.87;;;10.00;99.90;;;;;;5490656;26;20442;-68
2024/04/24 07:07:18;;;;;;;6.93;5.20;;;9.80;99.90;;;;;;5490122;26;20455;-66
2024/04/24 07:09:49;;;;;;;7.90;5.47;;;9.90;99.90;;;;;;5489889;26;20435;-66
2024/04/24 07:12:17;;;;;;;5.60;5.00;;;10.10;99.90;;;;;;5490116;26;20435;-67
2024/04/24 07:14:45;;;;;;;6.43;5.80;;;10.30;99.90;;;;;;5490235;26;20443;-66
2024/04/24 07:17:14;;;;;;;6.27;5.07;;;10.20;99.90;;;;;;5489957;26;20482;-61
2024/04/24 07:19:43;;;;;;;7.50;5.87;;;10.30;99.90;;;;;;5489719;26;20454;-63
2024/04/24 07:22:11;;;;;;;8.93;4.80;;;10.40;99.90;;;;;;5489943;26;20495;-62
2024/04/24 07:24:39;;;;;;;5.97;5.03;;;10.40;99.90;;;;;;5489843;26;20519;-62
2024/04/24 07:27:10;;;;;;;4.70;4.30;;;10.40;99.90;;;;;;5489623;26;20487;-63
2024/04/24 07:29:38;;;;;;;6.00;5.40;;;10.50;99.90;;;;;;5490366;26;20499;-63
2024/04/24 07:32:07;;;;;;;5.10;4.60;;;10.40;99.90;;;;;;5489844;26;20527;-62
2024/04/24 07:34:35;;;;;;;4.50;4.10;;;10.60;99.90;;;;;;5489829;26;20447;-63
2024/04/24 07:37:03;;;;;;;6.17;5.67;;;10.80;99.90;;;;;;5489348;26;20507;-62
2024/04/24 07:39:31;;;;;;;4.90;4.40;;;10.80;99.90;;;;;;5489732;26;20463;-64
2024/04/24 07:41:59;;;;;;;6.00;5.50;;;10.90;99.90;;;;;;5489583;26;20495;-66
2024/04/24 07:44:30;;;;;;;5.20;4.07;;;11.10;99.90;;;;;;5489555;26;20543;-65
2024/04/24 07:46:58;;;;;;;4.43;4.13;;;11.30;99.90;;;;;;5489585;26;20771;-72
2024/04/24 07:49:26;;;;;;;4.47;4.17;;;11.50;99.90;;;;;;5489357;26;20444;-62
2024/04/24 07:51:54;;;;;;;5.03;4.13;;;11.70;99.20;;;;;;5489323;26;20451;-64
2024/04/24 07:54:23;;;;;;;3.93;3.63;;;11.70;96.80;;;;;;5489188;26;20503;-64
2024/04/24 07:56:51;;;;;;;4.60;4.20;;;11.80;96.90;;;;;;5488121;26;20455;-68
2024/04/24 07:59:19;;;;;;;3.80;3.60;;;12.10;97.90;;;;;;5488329;26;20455;-65
2024/04/24 08:01:49;;;;;;;4.10;3.80;;;12.50;96.50;;;;;;5489049;26;20455;-66
2024/04/24 08:04:17;;;;;;;6.40;3.80;;;12.40;95.80;;;;;;5489321;26;20487;-68
2024/04/24 08:06:46;;;;;;;4.30;4.00;;;12.50;95.70;;;;;;5489326;26;20518;-66
2024/04/24 08:09:14;;;;;;;4.43;4.03;;;12.50;95.00;;;;;;5489195;26;20946;-66
2024/04/24 08:11:42;;;;;;;6.33;4.20;;;12.50;94.40;;;;;;5488982;26;20503;-68
2024/04/24 08:14:10;;;;;;;5.43;3.60;;;12.90;95.70;;;;;;5489059;26;20444;-65
2024/04/24 08:16:38;;;;;;;4.20;3.83;;;13.20;94.40;;;;;;5489098;26;20980;-68
2024/04/24 08:19:09;;;;;;;5.97;3.97;;;13.00;93.10;;;;;;5488803;26;20455;-61
2024/04/24 08:21:37;;;;;;;4.33;3.97;;;12.60;92.30;;;;;;5488849;26;20459;-62
2024/04/24 08:24:06;;;;;;;3.70;3.50;;;12.70;94.00;;;;;;5488984;26;20455;-61
2024/04/24 08:26:34;;;;;;;3.40;3.20;;;12.70;92.70;;;;;;5488623;26;20824;-61
2024/04/24 08:29:02;;;;;;;5.03;4.53;;;12.90;92.70;;;;;;5488886;26;20526;-61
2024/04/24 08:31:30;;;;;;;4.93;4.00;;;12.80;91.00;;;;;;5488612;26;20443;-65
2024/04/24 08:33:58;;;;;;;5.63;3.80;;;12.90;92.50;;;;;;5488763;26;20547;-61
2024/04/24 08:36:29;;;;;;;3.73;3.40;;;12.90;92.60;;;;;;5488528;26;20439;-62
2024/04/24 08:38:59;;;;;;;8.30;3.97;;;12.90;91.80;;;;;;5488563;26;20444;-63
2024/04/24 08:41:28;;;;;;;4.30;3.90;;;12.70;90.50;;;;;;5488387;26;20961;-63
2024/04/24 08:43:58;;;;;;;4.03;3.63;;;12.30;89.80;;;;;;5488457;26;20447;-63
2024/04/24 08:46:30;;;;;;;4.10;3.80;;;12.40;91.80;;;;;;5488291;26;20491;-62
2024/04/24 08:48:59;;;;;;;4.50;4.20;;;12.30;90.10;;;;;;5488901;26;20489;-62
2024/04/24 08:51:31;;;;;;;4.10;3.70;;;12.20;90.30;;;;;;5488299;26;20435;-62
2024/04/24 08:54:03;;;;;;;4.00;3.70;;;12.40;90.90;;;;;;5488012;26;20508;-62
2024/04/24 08:56:36;;;;;;;4.53;4.10;;;12.10;90.00;;;;;;5488374;26;20439;-62
2024/04/24 08:59:09;;;;;;;3.43;3.23;;;12.10;90.40;;;;;;5488322;26;20846;-63
2024/04/24 09:01:42;;;;;;;3.37;3.07;;;12.20;91.20;;;;;;5488181;26;20451;-63
2024/04/24 09:04:11;;;;;;;4.27;3.90;;;12.10;90.70;;;;;;5487945;26;20590;-63
2024/04/24 09:06:42;;;;;;;3.73;3.43;;;12.10;91.60;;;;;;5488133;26;21271;-63
2024/04/24 09:09:11;;;;;;;5.27;4.23;;;12.10;90.70;;;;;;5489440;26;20442;-63
2024/04/24 09:11:39;;;;;;;3.83;3.53;;;12.00;90.20;;;;;;5491879;26;20487;-63
2024/04/24 09:14:07;;;;;;;4.30;3.20;;;12.00;90.30;;;;;;5491918;26;20484;-63
2024/04/24 09:16:37;;;;;;;4.30;3.00;;;12.10;90.20;;;;;;5491661;26;20495;-63
2024/04/24 09:19:06;;;;;;;3.20;3.00;;;12.30;90.40;;;;;;5491637;26;20862;-63
2024/04/24 09:21:35;;;;;;;4.03;3.63;;;12.40;89.90;;;;;;5491326;26;20455;-63
2024/04/24 09:24:06;;;;;;;4.00;3.30;;;12.60;89.40;;;;;;5491671;26;20507;-63
2024/04/24 09:26:34;;;;;;;4.40;3.50;;;12.70;88.70;;;;;;5491551;26;20489;-63
2024/04/24 09:29:02;;;;;;;5.33;3.30;;;12.90;87.10;;;;;;5491590;26;20495;-63
2024/04/24 09:31:30;;;;;;;3.33;3.03;;;12.80;85.60;;;;;;5491705;26;20462;-63
2024/04/24 09:33:58;;;;;;;2.87;2.70;;;12.80;85.50;;;;;;5491338;26;20442;-63
2024/04/24 09:36:30;;;;;;;3.30;3.10;;;12.80;83.10;;;;;;5491384;26;20440;-63
2024/04/24 09:38:59;;;;;;;3.40;3.20;;;12.60;83.30;;;;;;5491461;26;20489;-63
2024/04/24 09:41:29;;;;;;;3.30;3.10;;;12.60;84.10;;;;;;5491265;26;20449;-63
2024/04/24 09:43:58;;;;;;;3.13;2.93;;;12.40;84.00;;;;;;5491123;26;20825;-63
2024/04/24 09:46:26;;;;;;;3.87;3.37;;;12.20;86.80;;;;;;5491040;26;20953;-63
2024/04/24 09:48:54;;;;;;;4.10;3.80;;;12.10;85.70;;;;;;5490786;26;20479;-63
2024/04/24 09:51:22;;;;;;;3.43;3.23;;;12.10;86.10;;;;;;5491140;26;20443;-63
2024/04/24 09:53:50;;;;;;;3.40;3.20;;;12.00;87.10;;;;;;5490870;26;20491;-63
2024/04/24 09:56:23;;;;;;;3.20;3.00;;;12.00;88.90;;;;;;5490964;26;20454;-63
2024/04/24 09:58:57;;;;;;;2.47;2.27;;;11.90;86.80;;;;;;5490948;26;20491;-63
2024/04/24 10:01:28;;;;;;;3.53;3.07;;;11.90;87.90;;;;;;5491010;26;20499;-63
2024/04/24 10:03:58;;;;;;;3.80;3.50;;;12.10;87.60;;;;;;5491001;26;20447;-63
2024/04/24 10:06:27;;;;;;;5.50;4.00;;;11.90;89.40;;;;;;5490617;26;20767;-63
2024/04/24 10:08:58;;;;;;;3.23;2.87;;;11.80;90.20;;;;;;5490597;26;20447;-63
2024/04/24 10:11:33;;;;;;;3.37;3.07;;;12.00;90.10;;;;;;5490673;26;20970;-63
2024/04/24 10:14:06;;;;;;;4.40;3.23;;;12.00;90.40;;;;;;5490929;26;20495;-63
2024/04/24 10:16:34;;;;;;;3.23;2.97;;;12.10;90.90;;;;;;5490696;26;20554;-63
2024/04/24 10:19:04;;;;;;;3.07;2.80;;;11.90;90.50;;;;;;5490527;26;20495;-63
2024/04/24 10:21:33;;;;;;;2.93;2.73;;;12.00;91.40;;;;;;5489207;26;20491;-63
2024/04/24 10:24:04;;;;;;;3.57;3.30;;;12.10;91.40;;;;;;5490595;26;20484;-63
2024/04/24 10:26:34;;;;;;;3.53;3.33;;;12.10;91.70;;;;;;5490527;26;20521;-63
2024/04/24 10:29:06;;;;;;;3.40;3.20;;;11.90;92.10;;;;;;5490423;26;20451;-63
2024/04/24 10:31:34;;;;;;;4.03;3.70;;;12.00;92.20;;;;;;5490317;26;20447;-63
2024/04/24 10:34:03;;;;;;;3.10;2.90;;;12.00;91.60;;;;;;5490286;26;20456;-63
2024/04/24 10:36:31;;;;;;;3.80;3.50;;;12.00;91.60;;;;;;5490462;26;20489;-63
2024/04/24 10:38:59;;;;;;;4.20;3.90;;;11.90;91.00;;;;;;5490410;26;20495;-63
2024/04/24 10:41:28;;;;;;;4.03;3.73;;;11.90;92.30;;;;;;5490320;26;20501;-63
2024/04/24 10:43:57;;;;;;;3.53;3.33;;;11.90;92.70;;;;;;5490174;26;20552;-63
2024/04/24 10:46:28;;;;;;;3.80;3.50;;;11.80;92.40;;;;;;5490090;26;20450;-63
2024/04/24 10:48:57;;;;;;;3.93;3.63;;;11.90;92.80;;;;;;5490309;26;20455;-63
2024/04/24 10:51:30;;;;;;;7.93;4.43;;;11.80;92.70;;;;;;5490289;26;20439;-63
2024/04/24 10:54:01;;;;;;;3.40;3.10;;;11.80;92.60;;;;;;5489996;26;20965;-63
2024/04/24 10:56:33;;;;;;;4.43;4.03;;;11.80;92.80;;;;;;5490345;26;20847;-63
2024/04/24 10:59:01;;;;;;;4.00;3.70;;;12.00;93.60;;;;;;5490373;26;20498;-63
2024/04/24 11:01:33;;;;;;;4.40;4.10;;;12.00;93.60;;;;;;5489908;26;20486;-63
2024/04/24 11:04:02;;;;;;;3.63;3.33;;;11.70;91.90;;;;;;5490106;26;20443;-62
2024/04/24 11:06:31;;;;;;;4.73;3.70;;;11.80;92.60;;;;;;5489610;26;20459;-63
2024/04/24 11:08:59;;;;;;;4.67;3.70;;;11.80;93.30;;;;;;5490097;26;20439;-62
2024/04/24 11:11:27;;;;;;;4.20;3.80;;;11.70;93.60;;;;;;5489999;26;20450;-62
2024/04/24 11:14:03;;;;;;;3.80;3.50;;;11.40;93.60;;;;;;5490243;26;20510;-63
2024/04/24 11:16:34;;;;;;;4.30;3.97;;;11.50;93.40;;;;;;5489987;26;20462;-62
2024/04/24 11:19:02;;;;;;;3.97;3.67;;;11.50;94.10;;;;;;5489781;26;20442;-63
2024/04/24 11:21:31;;;;;;;4.23;3.83;;;11.50;94.30;;;;;;5489684;26;20454;-63
2024/04/24 11:23:59;;;;;;;5.23;4.30;;;11.60;94.80;;;;;;5489791;26;20518;-63
2024/04/24 11:26:34;;;;;;;4.20;3.80;;;11.70;93.90;;;;;;5489711;26;20974;-62
2024/04/24 11:29:20;;;;;;;3.80;3.50;;;11.80;93.10;;;;;;5489938;26;20455;-69
2024/04/24 11:31:51;;;;;;;3.47;3.10;;;11.90;93.20;;;;;;5489447;26;20499;-65
2024/04/24 11:34:20;;;;;;;4.20;3.80;;;12.00;92.20;;;;;;5489945;26;20448;-65
2024/04/24 11:36:50;;;;;;;4.23;3.87;;;12.10;92.90;;;;;;5489650;26;20485;-64
2024/04/24 11:39:20;;;;;;;4.47;3.93;;;12.30;92.00;;;;;;5489649;26;20453;-62
2024/04/24 11:41:51;;;;;;;4.30;3.37;;;12.20;92.00;;;;;;5489559;26;20884;-62
2024/04/24 11:44:20;;;;;;;4.10;3.83;;;12.40;91.90;;;;;;5489498;26;20443;-63
2024/04/24 11:46:51;;;;;;;3.83;3.53;;;12.50;92.20;;;;;;5489535;26;20447;-61
2024/04/24 11:49:23;;;;;;;5.80;5.30;;;12.60;92.30;;;;;;5489581;26;20439;-64
2024/04/24 11:51:52;;;;;;;4.73;4.33;;;12.40;91.60;;;;;;5489421;26;20456;-63
2024/04/24 11:54:21;;;;;;;5.33;4.90;;;12.40;92.30;;;;;;5489442;26;20572;-64
2024/04/24 11:56:50;;;;;;;4.33;4.03;;;12.40;93.10;;;;;;5489451;26;20499;-64
2024/04/24 11:59:18;;;;;;;7.70;5.80;;;12.30;94.20;;;;;;5489500;26;20541;-62
2024/04/24 12:01:47;;;;;;;7.73;5.67;;;12.10;95.90;;;;;;5489373;26;20498;-62
2024/04/24 12:04:17;;;;;;;6.50;5.77;;;11.90;98.00;;;;;;5489138;26;20511;-63
2024/04/24 12:06:46;;;;;;;6.97;6.43;;;11.80;99.00;;;;;;5488823;26;20493;-63
2024/04/24 12:09:14;;;;;;;7.30;6.70;;;11.70;99.90;;;;;;5489289;26;20446;-63
2024/04/24 12:11:43;;;;;;;7.77;7.10;;;11.70;99.90;;;;;;5489496;26;20482;-63
2024/04/24 12:14:13;;;;;;;7.30;6.63;;;11.70;99.90;;;;;;5489117;26;20443;-61
2024/04/24 12:16:41;;;;;;;6.60;6.10;;;11.50;99.90;;;;;;5489087;26;20806;-64
2024/04/24 12:19:10;;;;;;;6.53;6.13;;;11.50;99.90;;;;;;5489085;26;20456;-63
2024/04/24 12:21:41;;;;;;;7.00;6.50;;;11.50;99.90;;;;;;5488629;26;20448;-64
2024/04/24 12:24:09;;;;;;;6.90;6.20;;;11.60;99.90;;;;;;5488929;26;20970;-64
2024/04/24 12:26:37;;;;;;;6.80;6.20;;;11.90;99.90;;;;;;5488856;26;20492;-64
2024/04/24 12:29:05;;;;;;;7.47;6.77;;;11.90;99.90;;;;;;5488940;26;20463;-64
2024/04/24 12:31:34;;;;;;;6.20;5.70;;;12.00;99.90;;;;;;5488619;26;20496;-62
2024/04/24 12:34:02;;;;;;;6.40;6.00;;;12.10;99.90;;;;;;5488739;26;20450;-61
2024/04/24 12:36:31;;;;;;;5.63;5.23;;;12.30;99.90;;;;;;5488576;26;20961;-62
2024/04/24 12:39:03;;;;;;;6.83;6.33;;;12.50;99.90;;;;;;5488747;26;20504;-67
2024/04/24 12:41:34;;;;;;;7.80;6.20;;;12.60;99.90;;;;;;5488546;26;20445;-65
2024/04/24 12:44:03;;;;;;;6.93;6.33;;;12.80;99.90;;;;;;5489419;26;20830;-68
2024/04/24 12:46:31;;;;;;;6.07;5.57;;;12.80;99.90;;;;;;5492133;26;20440;-74
2024/04/24 12:49:02;;;;;;;5.77;5.37;;;12.80;99.90;;;;;;5492126;26;20439;-66
2024/04/24 12:51:30;;;;;;;7.03;5.00;;;12.70;99.70;;;;;;5492059;26;20954;-64
2024/04/24 12:53:59;;;;;;;6.43;5.93;;;12.80;99.90;;;;;;5491809;26;20987;-66
2024/04/24 12:56:30;;;;;;;8.67;5.47;;;12.80;99.90;;;;;;5492043;26;20466;-66
2024/04/24 12:58:58;;;;;;;6.23;5.60;;;12.80;99.90;;;;;;5492106;26;20494;-65
2024/04/24 13:01:26;;;;;;;5.83;5.37;;;12.90;99.10;;;;;;5491863;26;20443;-65
2024/04/24 13:03:54;;;;;;;5.70;5.30;;;12.90;98.50;;;;;;5491862;26;20450;-65
2024/04/24 13:06:22;;;;;;;6.43;5.93;;;13.00;98.50;;;;;;5491635;26;20451;-65